Time;durP1;ratioP1;P1;durP2;ratioP2;P2;SDS_P1;SDS_P2;PMS_P1;PMS_P2;Temp;Humidity;BMP_temperature;BMP_pressure;BME280_temperature;BME280_humidity;BME280_pressure;Samples;Min_cycle;Max_cycle;Signal;HPM_P1;HPM_P2
2023/06/05 00:02:06;;;;;;;13.27;12.10;;;10.50;79.50;;;;;;5012116;28;20197;-87
2023/06/05 00:04:31;;;;;;;13.77;11.27;;;10.50;79.30;;;;;;5012101;28;20177;-86
2023/06/05 00:06:57;;;;;;;13.30;12.10;;;10.40;79.20;;;;;;5013305;28;20196;-86
2023/06/05 00:09:23;;;;;;;28.73;26.53;;;10.40;79.10;;;;;;5013266;28;20177;-86
2023/06/05 00:11:48;;;;;;;28.50;26.40;;;10.30;78.90;;;;;;5015011;28;20201;-85
2023/06/05 00:14:14;;;;;;;31.50;29.33;;;10.30;79.00;;;;;;5015913;28;20251;-85
2023/06/05 00:16:40;;;;;;;33.30;31.10;;;10.20;78.80;;;;;;5017110;28;20774;-86
2023/06/05 00:19:06;;;;;;;30.33;28.00;;;10.20;78.70;;;;;;5017068;28;20201;-87
2023/06/05 00:21:32;;;;;;;30.70;28.70;;;10.20;78.70;;;;;;5015671;28;20307;-85
2023/06/05 00:23:57;;;;;;;32.83;30.63;;;10.10;78.70;;;;;;5015749;28;20212;-87
2023/06/05 00:26:23;;;;;;;31.50;29.30;;;10.10;78.70;;;;;;5017264;28;20174;-86
2023/06/05 00:28:48;;;;;;;30.20;28.20;;;10.10;78.60;;;;;;5015883;28;20209;-86
2023/06/05 00:31:14;;;;;;;31.53;29.33;;;10.10;78.60;;;;;;5015563;28;20584;-86
2023/06/05 00:33:40;;;;;;;33.77;31.27;;;10.00;78.50;;;;;;5016686;28;20588;-86
2023/06/05 00:36:06;;;;;;;13.47;12.37;;;10.00;78.30;;;;;;5015601;28;20565;-86
2023/06/05 00:38:32;;;;;;;13.53;12.50;;;10.00;78.40;;;;;;5015529;28;20173;-86
2023/06/05 00:40:57;;;;;;;13.80;12.60;;;10.00;78.30;;;;;;5015494;28;20173;-86
2023/06/05 00:43:23;;;;;;;13.43;12.40;;;9.90;78.10;;;;;;5015382;28;20698;-86
2023/06/05 00:45:51;;;;;;;14.17;12.93;;;9.90;78.20;;;;;;5016657;28;20256;-87
2023/06/05 00:48:17;;;;;;;14.43;13.23;;;9.80;78.20;;;;;;5015387;28;20223;-86
2023/06/05 00:50:42;;;;;;;14.40;13.00;;;9.80;78.10;;;;;;5015379;28;20173;-86
2023/06/05 00:53:08;;;;;;;13.40;12.40;;;9.80;78.20;;;;;;5015131;28;20321;-86
2023/06/05 00:55:34;;;;;;;13.80;12.50;;;9.80;78.20;;;;;;5015221;28;20178;-86
2023/06/05 00:58:03;;;;;;;14.60;13.43;;;9.80;78.10;;;;;;5016406;28;20196;-86
2023/06/05 01:00:28;;;;;;;14.80;13.60;;;9.80;78.20;;;;;;5015065;28;20682;-86
2023/06/05 01:02:56;;;;;;;14.97;13.47;;;9.70;78.20;;;;;;5016205;28;20197;-86
2023/06/05 01:05:22;;;;;;;14.83;13.57;;;9.70;78.30;;;;;;5015211;28;20184;-86
2023/06/05 01:07:48;;;;;;;14.50;13.37;;;9.60;78.30;;;;;;5016200;28;20232;-86
2023/06/05 01:10:14;;;;;;;14.33;13.23;;;9.60;78.60;;;;;;5014879;28;20178;-86
2023/06/05 01:13:01;;;;;;;14.47;13.27;;;9.60;78.70;;;;;;5014716;28;20259;-86
2023/06/05 01:15:29;;;;;;;13.23;12.23;;;9.60;78.80;;;;;;5014989;28;20280;-86
2023/06/05 01:17:56;;;;;;;14.53;13.43;;;9.50;78.80;;;;;;5015982;28;20193;-86
2023/06/05 01:20:22;;;;;;;13.57;12.53;;;9.50;78.80;;;;;;5016089;28;20166;-86
2023/06/05 01:22:52;;;;;;;13.93;12.80;;;9.50;78.90;;;;;;5014805;28;20235;-86
2023/06/05 01:25:18;;;;;;;15.07;13.70;;;9.40;78.90;;;;;;5015876;28;20161;-86
2023/06/05 01:28:24;;;;;;;14.43;13.30;;;9.50;78.90;;;;;;5014692;28;20177;-86
2023/06/05 01:31:16;;;;;;;13.10;12.20;;;9.40;78.90;;;;;;5015866;28;20161;-86
2023/06/05 01:33:57;;;;;;;15.57;13.37;;;9.40;78.90;;;;;;5012201;28;20239;-86
2023/06/05 01:36:23;;;;;;;14.77;13.47;;;9.30;78.90;;;;;;5015809;28;20168;-86
2023/06/05 01:38:50;;;;;;;15.27;13.97;;;9.30;79.20;;;;;;5014429;28;20204;-86
2023/06/05 01:41:16;;;;;;;15.13;13.90;;;9.30;79.20;;;;;;5014305;28;20178;-86
2023/06/05 01:43:44;;;;;;;15.83;14.40;;;9.20;79.20;;;;;;5014205;28;20225;-86
2023/06/05 01:46:10;;;;;;;14.90;13.70;;;9.20;79.40;;;;;;5014574;28;20518;-86
2023/06/05 01:48:38;;;;;;;14.50;13.30;;;9.20;79.40;;;;;;5015819;28;20592;-86
2023/06/05 01:51:05;;;;;;;15.47;14.27;;;9.20;79.30;;;;;;5014180;28;20177;-86
2023/06/05 01:53:30;;;;;;;16.60;15.20;;;9.20;79.50;;;;;;5015300;28;20220;-86
2023/06/05 01:55:57;;;;;;;17.67;16.13;;;9.10;79.50;;;;;;5013969;28;20212;-86
2023/06/05 01:58:23;;;;;;;15.83;14.57;;;9.10;79.60;;;;;;5014128;28;20180;-86
2023/06/05 02:00:49;;;;;;;15.43;14.13;;;9.10;79.60;;;;;;5015345;28;20197;-86
2023/06/05 02:03:18;;;;;;;15.63;14.43;;;9.10;79.70;;;;;;5013946;28;20221;-86
2023/06/05 02:05:44;;;;;;;14.90;13.70;;;9.00;79.80;;;;;;5015170;28;20249;-85
2023/06/05 02:08:10;;;;;;;15.30;14.13;;;9.00;79.80;;;;;;5013922;28;20239;-86
2023/06/05 02:10:40;;;;;;;14.60;13.47;;;8.90;79.80;;;;;;5015309;28;20178;-86
2023/06/05 02:13:06;;;;;;;14.97;13.60;;;8.90;79.90;;;;;;5014815;28;20691;-86
2023/06/05 02:15:33;;;;;;;14.50;13.40;;;8.90;79.90;;;;;;5013698;28;20176;-86
2023/06/05 02:18:00;;;;;;;13.50;12.50;;;8.90;79.90;;;;;;5013648;28;20169;-86
2023/06/05 02:20:26;;;;;;;14.17;13.07;;;8.90;79.80;;;;;;5013650;28;20196;-86
2023/06/05 02:22:52;;;;;;;13.83;12.60;;;8.80;79.70;;;;;;5013564;28;20197;-86
2023/06/05 02:25:18;;;;;;;13.87;12.87;;;8.80;79.70;;;;;;5013613;28;20173;-86
2023/06/05 02:27:44;;;;;;;14.17;12.90;;;8.80;79.70;;;;;;5014793;28;20216;-85
2023/06/05 02:30:11;;;;;;;15.00;13.50;;;8.80;79.70;;;;;;5013404;28;20173;-84
2023/06/05 02:32:41;;;;;;;14.87;13.57;;;8.70;79.60;;;;;;5013481;28;20193;-85
2023/06/05 02:35:07;;;;;;;15.00;13.70;;;8.70;79.70;;;;;;5014275;28;20574;-85
2023/06/05 02:37:36;;;;;;;13.90;12.90;;;8.70;79.70;;;;;;5013333;28;20181;-86
2023/06/05 02:40:03;;;;;;;14.27;13.17;;;8.70;79.60;;;;;;5014898;28;20165;-86
2023/06/05 02:42:29;;;;;;;15.50;13.97;;;8.70;79.60;;;;;;5013170;28;20206;-86
2023/06/05 02:44:54;;;;;;;14.63;13.43;;;8.60;79.60;;;;;;5014476;28;20326;-85
2023/06/05 02:47:20;;;;;;;16.07;14.67;;;8.50;79.70;;;;;;5013204;28;20223;-86
2023/06/05 02:49:45;;;;;;;15.87;14.57;;;8.50;79.90;;;;;;5013071;28;20228;-86
2023/06/05 02:52:11;;;;;;;15.00;13.63;;;8.50;80.00;;;;;;5014188;28;20204;-85
2023/06/05 02:54:38;;;;;;;16.87;15.20;;;8.50;80.10;;;;;;5012956;28;20201;-86
2023/06/05 02:57:06;;;;;;;15.13;13.90;;;8.40;80.30;;;;;;5012925;28;20181;-85
2023/06/05 02:59:32;;;;;;;15.83;14.43;;;8.50;80.40;;;;;;5013228;28;20273;-85
2023/06/05 03:01:57;;;;;;;15.10;13.73;;;8.40;80.40;;;;;;5012838;28;20340;-85
2023/06/05 03:04:24;;;;;;;14.80;13.50;;;8.40;80.60;;;;;;5012817;28;20181;-85
2023/06/05 03:06:50;;;;;;;15.77;14.30;;;8.40;80.60;;;;;;5013221;28;20207;-84
2023/06/05 03:09:18;;;;;;;15.53;14.03;;;8.50;80.60;;;;;;5012792;28;20208;-85
2023/06/05 03:11:44;;;;;;;15.27;13.87;;;8.60;80.80;;;;;;5012723;28;20201;-85
2023/06/05 03:14:09;;;;;;;15.20;13.80;;;8.60;80.90;;;;;;5013779;28;20213;-85
2023/06/05 03:16:41;;;;;;;14.83;13.53;;;8.70;81.10;;;;;;5014032;28;20180;-85
2023/06/05 03:19:08;;;;;;;15.17;13.80;;;8.80;81.20;;;;;;5013254;28;20188;-86
2023/06/05 03:21:33;;;;;;;15.87;14.23;;;8.90;81.20;;;;;;5012644;28;20227;-85
2023/06/05 03:23:59;;;;;;;14.80;13.50;;;9.00;81.10;;;;;;5012654;28;20174;-86
2023/06/05 03:26:25;;;;;;;15.67;14.07;;;9.00;80.80;;;;;;5012524;28;20647;-85
2023/06/05 03:28:51;;;;;;;14.87;13.47;;;9.00;80.60;;;;;;5013654;28;20205;-85
2023/06/05 03:31:17;;;;;;;14.87;13.40;;;8.90;80.60;;;;;;5012346;28;20177;-85
2023/06/05 03:33:42;;;;;;;14.40;13.13;;;8.90;80.60;;;;;;5013696;28;20197;-85
2023/06/05 03:36:09;;;;;;;14.23;12.93;;;8.90;80.70;;;;;;5013682;28;20180;-86
2023/06/05 03:38:34;;;;;;;16.07;14.50;;;9.00;81.00;;;;;;5012394;28;20216;-86
2023/06/05 03:41:00;;;;;;;23.43;14.73;;;9.00;81.30;;;;;;5012387;28;20200;-85
2023/06/05 03:43:25;;;;;;;28.17;25.57;;;9.20;81.70;;;;;;5013582;28;20219;-85
2023/06/05 03:45:51;;;;;;;27.07;24.70;;;9.30;81.90;;;;;;5011685;28;20177;-85
2023/06/05 03:48:20;;;;;;;31.97;24.90;;;9.40;82.30;;;;;;5012348;28;20271;-86
2023/06/05 03:50:46;;;;;;;27.70;24.87;;;9.50;83.10;;;;;;5012171;28;20181;-86
2023/06/05 03:53:13;;;;;;;24.67;22.47;;;9.60;84.00;;;;;;5012048;28;20201;-86
2023/06/05 03:55:41;;;;;;;25.87;22.53;;;9.60;84.50;;;;;;5012168;28;20169;-85
2023/06/05 03:58:14;;;;;;;24.53;22.27;;;9.80;84.90;;;;;;5012282;28;20177;-86
2023/06/05 04:00:50;;;;;;;24.23;21.87;;;9.70;85.20;;;;;;5012437;28;20181;-85
2023/06/05 04:03:16;;;;;;;23.30;20.93;;;9.70;85.70;;;;;;5013393;28;20197;-85
2023/06/05 04:05:42;;;;;;;17.80;14.40;;;9.80;86.00;;;;;;5013417;28;20540;-86
2023/06/05 04:08:09;;;;;;;18.27;15.07;;;9.80;86.20;;;;;;5013508;28;20227;-85
2023/06/05 04:10:35;;;;;;;16.70;13.77;;;9.70;86.50;;;;;;5012211;28;20227;-85
2023/06/05 04:13:00;;;;;;;14.67;13.33;;;9.80;86.80;;;;;;5011758;28;20220;-85
2023/06/05 04:15:27;;;;;;;17.07;13.30;;;9.80;86.80;;;;;;5013241;28;20173;-85
2023/06/05 04:17:52;;;;;;;17.13;13.50;;;9.90;86.90;;;;;;5012199;28;20182;-85
2023/06/05 04:20:18;;;;;;;18.83;13.73;;;9.90;87.00;;;;;;5013219;28;20173;-85
2023/06/05 04:22:45;;;;;;;16.47;12.87;;;9.90;87.20;;;;;;5011993;28;20193;-85
2023/06/05 04:25:12;;;;;;;17.73;12.90;;;9.90;87.30;;;;;;5011812;28;20181;-85
2023/06/05 04:27:42;;;;;;;15.37;12.70;;;9.90;87.40;;;;;;5013106;28;20169;-86
2023/06/05 04:30:09;;;;;;;41.60;15.37;;;10.00;87.50;;;;;;5013269;28;20187;-85
2023/06/05 04:32:39;;;;;;;17.33;13.27;;;10.00;87.60;;;;;;5011730;28;20695;-85
2023/06/05 04:35:10;;;;;;;15.73;13.50;;;10.00;87.60;;;;;;5012930;28;20189;-86
2023/06/05 04:37:37;;;;;;;19.17;13.37;;;10.00;87.70;;;;;;5011812;28;20592;-85
2023/06/05 04:40:10;;;;;;;17.57;12.73;;;10.00;87.80;;;;;;5011842;28;20264;-85
2023/06/05 04:42:39;;;;;;;19.90;13.00;;;10.00;87.80;;;;;;5012953;28;20185;-85
2023/06/05 04:45:09;;;;;;;21.27;13.33;;;10.10;88.00;;;;;;5011753;28;20181;-85
2023/06/05 04:47:35;;;;;;;16.57;13.50;;;10.10;88.00;;;;;;5013055;28;20158;-86
2023/06/05 04:50:05;;;;;;;16.73;12.97;;;10.10;88.10;;;;;;5011685;28;20178;-85
2023/06/05 04:52:39;;;;;;;18.90;13.30;;;10.20;88.00;;;;;;5013141;28;20566;-85
2023/06/05 04:55:06;;;;;;;17.07;12.57;;;10.20;88.10;;;;;;5012930;28;20717;-86
2023/06/05 04:57:31;;;;;;;20.67;13.63;;;10.20;88.20;;;;;;5013886;28;20174;-86
2023/06/05 04:59:57;;;;;;;18.17;12.83;;;10.20;88.20;;;;;;5015321;28;20178;-86
2023/06/05 05:02:23;;;;;;;18.70;13.17;;;10.20;88.40;;;;;;5015054;28;20216;-85
2023/06/05 05:04:48;;;;;;;17.57;12.73;;;10.30;88.40;;;;;;5016284;28;20260;-86
2023/06/05 05:07:16;;;;;;;17.27;12.80;;;10.30;88.40;;;;;;5016367;28;20200;-85
2023/06/05 05:09:42;;;;;;;17.63;12.77;;;10.40;88.30;;;;;;5016154;28;20173;-85
2023/06/05 05:12:09;;;;;;;17.03;11.90;;;10.40;88.30;;;;;;5014910;28;20218;-85
2023/06/05 05:14:35;;;;;;;18.43;13.87;;;10.40;88.30;;;;;;5014913;28;20687;-86
2023/06/05 05:17:02;;;;;;;17.90;12.90;;;10.60;88.40;;;;;;5014941;28;20644;-86
2023/06/05 05:19:27;;;;;;;16.57;12.00;;;10.60;88.30;;;;;;5014808;28;20176;-86
2023/06/05 05:21:53;;;;;;;16.17;13.63;;;10.70;88.30;;;;;;5014623;28;20186;-85
2023/06/05 05:24:18;;;;;;;21.87;12.33;;;10.70;88.20;;;;;;5014606;28;20599;-86
2023/06/05 05:26:45;;;;;;;16.80;11.87;;;10.80;88.20;;;;;;5014859;28;20181;-86
2023/06/05 05:29:10;;;;;;;17.47;13.70;;;10.80;88.20;;;;;;5014712;28;20212;-86
2023/06/05 05:31:36;;;;;;;14.73;12.97;;;11.00;88.00;;;;;;5015736;28;20580;-86
2023/06/05 05:34:01;;;;;;;12.93;11.63;;;11.10;88.20;;;;;;5015885;28;20204;-86
2023/06/05 05:36:27;;;;;;;18.77;12.43;;;11.20;88.00;;;;;;5016120;28;20639;-86
2023/06/05 05:38:53;;;;;;;20.67;12.83;;;11.30;87.90;;;;;;5014483;28;20181;-85
2023/06/05 05:41:20;;;;;;;19.47;12.93;;;11.40;87.80;;;;;;5015726;28;20257;-86
2023/06/05 05:43:46;;;;;;;22.87;12.93;;;11.50;87.70;;;;;;5014514;28;20178;-86
2023/06/05 05:46:12;;;;;;;17.33;12.83;;;11.60;87.50;;;;;;5014432;28;20545;-85
2023/06/05 05:48:38;;;;;;;19.13;13.23;;;11.70;87.30;;;;;;5014349;28;20173;-86
2023/06/05 05:51:05;;;;;;;18.07;12.03;;;11.80;87.30;;;;;;5014280;28;20180;-86
2023/06/05 05:53:31;;;;;;;17.40;12.43;;;12.00;87.10;;;;;;5015303;28;20201;-85
2023/06/05 05:55:56;;;;;;;17.90;13.07;;;12.10;87.00;;;;;;5015450;28;20185;-85
2023/06/05 05:58:22;;;;;;;14.67;12.13;;;12.20;86.70;;;;;;5014157;28;20173;-85
2023/06/05 06:00:47;;;;;;;14.57;12.40;;;12.30;86.20;;;;;;5014186;28;20181;-85
2023/06/05 06:03:14;;;;;;;16.17;12.93;;;12.30;85.90;;;;;;5015449;28;20574;-85
2023/06/05 06:05:40;;;;;;;18.83;13.40;;;12.30;85.70;;;;;;5014074;28;20284;-86
2023/06/05 06:08:06;;;;;;;16.07;12.20;;;12.50;85.90;;;;;;5013422;28;20714;-87
2023/06/05 06:10:32;;;;;;;16.93;13.10;;;12.50;85.60;;;;;;5013944;28;20173;-86
2023/06/05 06:12:57;;;;;;;17.70;12.43;;;12.60;85.70;;;;;;5015095;28;20698;-86
2023/06/05 06:15:23;;;;;;;16.83;12.10;;;12.80;85.50;;;;;;5014860;28;20209;-86
2023/06/05 06:17:48;;;;;;;13.97;11.33;;;12.90;85.10;;;;;;5013687;28;20181;-86
2023/06/05 06:20:15;;;;;;;19.40;12.37;;;13.00;84.30;;;;;;5013817;28;20173;-85
2023/06/05 06:22:41;;;;;;;21.27;13.57;;;13.10;84.20;;;;;;5014855;28;20276;-86
2023/06/05 06:25:10;;;;;;;16.77;11.97;;;13.10;84.10;;;;;;5014845;28;20260;-86
2023/06/05 06:27:36;;;;;;;18.33;13.10;;;13.30;84.40;;;;;;5014788;28;20587;-86
2023/06/05 06:30:02;;;;;;;14.97;13.37;;;13.30;84.00;;;;;;5013489;28;20253;-86
2023/06/05 06:32:28;;;;;;;16.93;13.50;;;13.50;84.00;;;;;;5013671;28;20730;-86
2023/06/05 06:34:54;;;;;;;21.57;13.70;;;13.60;83.50;;;;;;5014632;28;20189;-86
2023/06/05 06:37:20;;;;;;;21.13;15.47;;;13.70;83.50;;;;;;5013445;28;20677;-86
2023/06/05 06:39:46;;;;;;;23.67;18.47;;;13.80;83.60;;;;;;5013368;28;20264;-86
2023/06/05 06:42:12;;;;;;;20.80;18.43;;;13.90;83.40;;;;;;5013308;28;20296;-86
2023/06/05 06:44:39;;;;;;;20.90;19.10;;;14.00;83.00;;;;;;5014477;28;20651;-86
2023/06/05 06:47:05;;;;;;;22.40;20.13;;;14.00;82.80;;;;;;5014482;28;20177;-86
2023/06/05 06:49:31;;;;;;;20.40;18.50;;;14.00;82.20;;;;;;5013134;28;20173;-86
2023/06/05 06:51:57;;;;;;;16.03;13.90;;;14.10;82.40;;;;;;5013052;28;20208;-86
2023/06/05 06:54:25;;;;;;;17.53;13.07;;;14.20;82.30;;;;;;5014226;28;20689;-86
2023/06/05 06:56:50;;;;;;;16.93;13.07;;;14.20;82.10;;;;;;5012996;28;20546;-86
2023/06/05 06:59:16;;;;;;;15.67;13.97;;;14.30;82.10;;;;;;5014568;28;20176;-86
2023/06/05 07:01:46;;;;;;;21.17;13.77;;;14.50;82.00;;;;;;5012916;28;20201;-86
2023/06/05 07:04:20;;;;;;;16.30;12.00;;;14.40;81.50;;;;;;5012975;28;20181;-86
2023/06/05 07:06:49;;;;;;;16.33;13.53;;;14.60;81.50;;;;;;5012926;28;20168;-86
2023/06/05 07:09:15;;;;;;;20.10;12.90;;;14.60;81.20;;;;;;5012871;28;20556;-86
2023/06/05 07:11:41;;;;;;;16.60;12.33;;;14.70;81.40;;;;;;5014207;28;20220;-86
2023/06/05 07:14:07;;;;;;;20.20;12.87;;;14.80;81.40;;;;;;5012517;28;20220;-86
2023/06/05 07:16:33;;;;;;;19.27;13.33;;;14.90;81.30;;;;;;5012865;28;20201;-86
2023/06/05 07:18:58;;;;;;;18.00;11.82;;;15.00;81.20;;;;;;5013932;28;20698;-86
2023/06/05 07:21:25;;;;;;;16.43;12.80;;;15.30;81.30;;;;;;5013255;28;20166;-86
2023/06/05 07:23:51;;;;;;;15.50;11.70;;;15.30;80.40;;;;;;5012596;28;20709;-86
2023/06/05 07:26:17;;;;;;;19.90;13.80;;;15.30;79.70;;;;;;5012549;28;20185;-86
2023/06/05 07:28:43;;;;;;;17.80;12.55;;;15.40;79.50;;;;;;5012552;28;20546;-86
2023/06/05 07:31:10;;;;;;;17.88;11.90;;;15.50;79.60;;;;;;5012749;28;20183;-86
2023/06/05 07:33:35;;;;;;;12.95;11.20;;;15.60;80.00;;;;;;5012282;28;20219;-86
2023/06/05 07:36:01;;;;;;;15.55;11.88;;;15.80;80.00;;;;;;5012467;28;20170;-86
2023/06/05 07:38:27;;;;;;;26.60;12.65;;;16.00;79.40;;;;;;5012335;28;20181;-86
2023/06/05 07:40:53;;;;;;;14.25;11.38;;;16.00;78.50;;;;;;5012367;28;20178;-86
2023/06/05 07:43:18;;;;;;;19.17;11.90;;;16.00;77.10;;;;;;5012277;28;20197;-86
2023/06/05 07:45:44;;;;;;;15.48;12.55;;;16.10;77.60;;;;;;5012335;28;20180;-86
2023/06/05 07:48:09;;;;;;;17.02;12.18;;;16.20;77.60;;;;;;5012368;28;20216;-86
2023/06/05 07:50:35;;;;;;;15.32;11.95;;;16.20;77.80;;;;;;5012344;28;20177;-86
2023/06/05 07:53:01;;;;;;;12.93;11.48;;;16.20;78.10;;;;;;5012095;28;20235;-87
2023/06/05 07:55:27;;;;;;;16.85;11.98;;;16.30;77.30;;;;;;5012209;28;20251;-86
2023/06/05 07:57:54;;;;;;;14.65;10.95;;;16.40;77.30;;;;;;5013471;28;20235;-86
2023/06/05 08:00:20;;;;;;;17.30;12.75;;;16.60;77.60;;;;;;5013415;28;20161;-86
2023/06/05 08:02:48;;;;;;;15.50;11.10;;;16.70;77.10;;;;;;5012581;28;20200;-86
2023/06/05 08:05:16;;;;;;;13.18;11.88;;;16.80;76.70;;;;;;5012274;28;20713;-86
2023/06/05 08:07:42;;;;;;;15.65;11.93;;;16.90;75.90;;;;;;5012224;28;20609;-86
2023/06/05 08:10:08;;;;;;;17.08;12.80;;;16.90;76.00;;;;;;5012109;28;20213;-86
2023/06/05 08:12:34;;;;;;;16.75;11.55;;;17.10;75.60;;;;;;5013105;28;20271;-86
2023/06/05 08:15:00;;;;;;;19.40;12.05;;;17.20;74.60;;;;;;5012013;28;20201;-86
2023/06/05 08:17:27;;;;;;;14.05;11.30;;;17.20;74.60;;;;;;5012018;28;20173;-87
2023/06/05 08:19:52;;;;;;;15.65;12.82;;;17.30;74.60;;;;;;5013087;28;20173;-86
2023/06/05 08:22:18;;;;;;;12.48;10.73;;;17.50;73.20;;;;;;5013396;28;20243;-87
2023/06/05 08:24:43;;;;;;;17.25;11.02;;;17.60;73.50;;;;;;5012161;28;20177;-86
2023/06/05 08:27:09;;;;;;;19.95;11.68;;;17.60;72.80;;;;;;5013080;28;20671;-86
2023/06/05 08:29:38;;;;;;;14.27;10.45;;;17.70;72.50;;;;;;5011943;28;20252;-86
2023/06/05 08:32:05;;;;;;;14.32;10.32;;;17.80;73.20;;;;;;5014899;28;20201;-87
2023/06/05 08:34:31;;;;;;;12.63;10.32;;;18.00;72.90;;;;;;5017056;28;20699;-87
2023/06/05 08:37:00;;;;;;;12.02;10.82;;;18.10;71.90;;;;;;5017089;28;20575;-87
2023/06/05 08:39:31;;;;;;;14.45;10.95;;;18.20;70.60;;;;;;5017084;28;20180;-87
2023/06/05 08:41:59;;;;;;;21.42;11.85;;;18.30;70.80;;;;;;5015867;28;20212;-87
2023/06/05 08:44:29;;;;;;;12.75;11.38;;;18.50;70.60;;;;;;5017091;28;20170;-87
2023/06/05 08:47:03;;;;;;;18.77;12.82;;;18.70;70.50;;;;;;5016160;28;20643;-87
2023/06/05 08:49:30;;;;;;;14.32;12.63;;;18.50;69.80;;;;;;5016878;28;20201;-87
2023/06/05 08:52:02;;;;;;;16.50;12.85;;;18.50;69.40;;;;;;5016616;28;20208;-87
2023/06/05 08:54:32;;;;;;;16.10;13.43;;;18.60;69.40;;;;;;5015443;28;20189;-87
2023/06/05 08:56:58;;;;;;;14.40;12.80;;;18.80;67.90;;;;;;5016837;28;20165;-87
2023/06/05 08:59:24;;;;;;;12.20;11.13;;;18.90;68.70;;;;;;5016876;28;20170;-87
2023/06/05 09:01:50;;;;;;;14.77;13.48;;;19.10;69.10;;;;;;5016593;28;20275;-87
2023/06/05 09:04:15;;;;;;;14.38;13.15;;;19.40;66.60;;;;;;5015488;28;20235;-87
2023/06/05 09:06:46;;;;;;;16.30;14.68;;;19.50;66.80;;;;;;5016720;28;20187;-87
2023/06/05 09:09:14;;;;;;;17.33;15.18;;;19.40;65.80;;;;;;5015222;28;20169;-86
2023/06/05 09:11:39;;;;;;;17.90;14.70;;;19.60;65.60;;;;;;5015128;28;20260;-87
2023/06/05 09:14:05;;;;;;;15.57;14.18;;;19.70;67.10;;;;;;5014871;28;20225;-87
2023/06/05 09:16:37;;;;;;;17.95;15.85;;;19.60;66.90;;;;;;5016587;28;20178;-87
2023/06/05 09:19:04;;;;;;;17.15;14.88;;;19.90;65.40;;;;;;5015217;28;20169;-87
2023/06/05 09:21:33;;;;;;;16.75;15.25;;;19.70;66.90;;;;;;5016709;28;20223;-87
2023/06/05 09:24:14;;;;;;;16.25;14.77;;;19.80;66.20;;;;;;5016727;28;20567;-87
2023/06/05 09:26:53;;;;;;;19.70;17.77;;;20.20;65.50;;;;;;5016296;28;20315;-87
2023/06/05 09:29:29;;;;;;;19.23;17.30;;;20.10;62.70;;;;;;5016168;28;20195;-87
2023/06/05 09:32:06;;;;;;;20.85;18.13;;;20.00;62.80;;;;;;5014835;28;20189;-87
2023/06/05 09:34:35;;;;;;;30.42;16.80;;;19.90;64.10;;;;;;5016159;28;20189;-87
2023/06/05 09:37:02;;;;;;;19.27;17.65;;;20.20;65.60;;;;;;5014993;28;20596;-87
2023/06/05 09:39:29;;;;;;;19.15;17.65;;;20.20;63.30;;;;;;5014692;28;20177;-87
2023/06/05 09:41:56;;;;;;;17.02;15.52;;;20.20;63.60;;;;;;5014575;28;20198;-87
2023/06/05 09:44:23;;;;;;;16.33;14.80;;;20.40;63.90;;;;;;5013725;28;20186;-87
2023/06/05 09:47:00;;;;;;;17.13;15.35;;;20.50;64.40;;;;;;5015820;28;20178;-87
2023/06/05 09:49:28;;;;;;;19.23;16.15;;;20.70;63.00;;;;;;5015751;28;20173;-87
2023/06/05 09:51:56;;;;;;;18.35;16.40;;;20.80;63.30;;;;;;5014449;28;20232;-87
2023/06/05 09:54:24;;;;;;;17.85;16.08;;;20.40;61.30;;;;;;5014374;28;20209;-87
2023/06/05 09:56:50;;;;;;;18.00;16.33;;;20.50;62.40;;;;;;5015574;28;20177;-87
2023/06/05 09:59:22;;;;;;;17.63;15.73;;;20.40;62.30;;;;;;5014317;28;20181;-86
2023/06/05 10:01:52;;;;;;;16.73;15.15;;;20.20;61.80;;;;;;5014077;28;20193;-87
2023/06/05 10:04:26;;;;;;;16.42;14.80;;;20.30;62.70;;;;;;5014111;28;20174;-86
2023/06/05 10:06:54;;;;;;;18.17;15.70;;;20.70;63.00;;;;;;5015361;28;20242;-87
2023/06/05 10:09:21;;;;;;;15.77;14.23;;;20.90;60.30;;;;;;5015262;28;20235;-87
2023/06/05 10:11:50;;;;;;;17.70;15.63;;;21.10;61.70;;;;;;5013895;28;20201;-87
2023/06/05 10:14:17;;;;;;;16.65;15.23;;;21.50;60.80;;;;;;5014137;28;20193;-87
2023/06/05 10:16:44;;;;;;;18.27;16.25;;;21.70;59.00;;;;;;5015495;28;20205;-87
2023/06/05 10:19:12;;;;;;;17.15;15.65;;;21.70;59.20;;;;;;5015401;28;20251;-87
2023/06/05 10:21:38;;;;;;;17.38;15.90;;;21.80;57.60;;;;;;5015051;28;20247;-87
2023/06/05 10:24:07;;;;;;;17.40;16.00;;;21.60;58.40;;;;;;5013847;28;20177;-87
2023/06/05 10:27:12;;;;;;;16.08;14.65;;;21.60;60.00;;;;;;5013783;28;20185;-87
2023/06/05 10:30:05;;;;;;;16.58;14.60;;;22.00;57.70;;;;;;5015375;28;20158;-87
2023/06/05 10:32:52;;;;;;;15.80;14.48;;;22.40;57.50;;;;;;5015005;28;20185;-87
2023/06/05 10:35:46;;;;;;;15.25;14.05;;;22.90;56.70;;;;;;5013594;28;20201;-87
2023/06/05 10:38:22;;;;;;;15.70;13.80;;;22.70;55.80;;;;;;5014820;28;20152;-87
2023/06/05 10:40:55;;;;;;;16.30;14.82;;;22.80;55.20;;;;;;5014019;28;20184;-87
2023/06/05 10:43:31;;;;;;;20.17;14.68;;;22.70;55.10;;;;;;5014916;28;20189;-87
2023/06/05 10:46:21;;;;;;;16.83;15.25;;;23.00;56.90;;;;;;5013574;28;20182;-87
2023/06/05 10:49:07;;;;;;;17.33;15.52;;;23.10;53.30;;;;;;5014281;28;20333;-87
2023/06/05 10:51:53;;;;;;;16.13;14.73;;;22.60;56.30;;;;;;5013541;28;20169;-88
2023/06/05 10:54:22;;;;;;;14.93;13.65;;;22.50;55.80;;;;;;5014560;28;20193;-87
2023/06/05 10:57:06;;;;;;;16.08;14.55;;;22.90;55.30;;;;;;5013363;28;20181;-87
2023/06/05 10:59:37;;;;;;;15.80;14.30;;;23.00;54.40;;;;;;5014447;28;20223;-87
2023/06/05 11:04:46;;;;;;;16.55;14.95;;;22.90;55.90;;;;;;5014796;28;20177;-87
2023/06/05 11:07:16;;;;;;;16.25;14.43;;;23.10;56.10;;;;;;5014681;28;20177;-87
2023/06/05 11:10:04;;;;;;;17.10;15.30;;;23.20;55.10;;;;;;5014565;28;20640;-87
2023/06/05 11:12:42;;;;;;;17.15;15.30;;;23.40;51.60;;;;;;5012896;28;20213;-87
2023/06/05 11:15:12;;;;;;;16.25;14.82;;;23.60;53.20;;;;;;5014553;28;20602;-87
2023/06/05 11:17:46;;;;;;;16.17;14.80;;;23.70;52.00;;;;;;5014894;28;20173;-87
2023/06/05 11:20:23;;;;;;;23.17;16.17;;;23.70;50.90;;;;;;5014403;28;20161;-87
2023/06/05 11:22:57;;;;;;;15.85;14.45;;;23.40;51.90;;;;;;5013282;28;20189;-87
2023/06/05 11:25:32;;;;;;;15.75;14.45;;;23.20;54.30;;;;;;5013574;28;20171;-87
2023/06/05 11:28:04;;;;;;;16.25;14.73;;;23.90;53.50;;;;;;5012732;28;20590;-87
2023/06/05 11:30:39;;;;;;;16.55;14.88;;;24.30;50.80;;;;;;5013121;28;20663;-87
2023/06/05 11:33:15;;;;;;;16.00;14.70;;;24.30;51.20;;;;;;5012812;28;20204;-87
2023/06/05 11:35:43;;;;;;;19.73;15.10;;;24.20;50.30;;;;;;5013735;28;20173;-87
2023/06/05 11:38:12;;;;;;;16.15;14.80;;;24.10;51.40;;;;;;5012642;28;20169;-87
2023/06/05 11:40:39;;;;;;;16.10;14.50;;;23.90;50.50;;;;;;5013637;28;20180;-86
2023/06/05 11:43:06;;;;;;;17.23;15.50;;;24.00;52.20;;;;;;5013490;28;20185;-87
2023/06/05 11:45:33;;;;;;;18.05;14.95;;;24.00;50.60;;;;;;5012311;28;20178;-87
2023/06/05 11:48:10;;;;;;;15.65;14.20;;;24.20;52.00;;;;;;5013569;28;20181;-87
2023/06/05 11:50:37;;;;;;;16.38;15.07;;;24.00;52.00;;;;;;5012256;28;20212;-87
2023/06/05 11:53:08;;;;;;;16.08;14.65;;;24.40;49.80;;;;;;5013434;28;20208;-86
2023/06/05 11:55:43;;;;;;;16.20;14.85;;;24.10;49.50;;;;;;5012131;28;20201;-87
2023/06/05 11:58:10;;;;;;;18.70;14.38;;;23.80;50.60;;;;;;5012363;28;20631;-87
2023/06/05 12:00:36;;;;;;;15.68;14.13;;;23.90;52.70;;;;;;5012188;28;20178;-87
2023/06/05 12:03:02;;;;;;;16.10;14.50;;;24.10;52.80;;;;;;5013383;28;20200;-87
2023/06/05 12:05:28;;;;;;;15.80;14.48;;;24.50;53.00;;;;;;5013412;28;20252;-87
2023/06/05 12:07:55;;;;;;;15.48;14.13;;;24.80;50.00;;;;;;5015322;28;20272;-87
2023/06/05 12:10:34;;;;;;;16.10;14.68;;;25.30;49.20;;;;;;5017408;28;20173;-87
2023/06/05 12:13:00;;;;;;;16.65;15.18;;;24.60;50.90;;;;;;5015912;28;20346;-87
2023/06/05 12:15:26;;;;;;;16.90;15.35;;;24.80;47.60;;;;;;5017279;28;20280;-87
2023/06/05 12:17:56;;;;;;;16.30;14.57;;;25.00;48.10;;;;;;5017268;28;20165;-87
2023/06/05 12:20:22;;;;;;;15.60;14.38;;;25.00;48.40;;;;;;5016001;28;20184;-87
2023/06/05 12:22:48;;;;;;;15.75;14.25;;;25.40;49.10;;;;;;5015847;28;20746;-87
2023/06/05 12:25:21;;;;;;;16.35;14.80;;;25.50;48.20;;;;;;5015931;28;20177;-87
2023/06/05 12:27:48;;;;;;;16.23;14.55;;;25.60;46.50;;;;;;5015920;28;20173;-87
2023/06/05 12:30:16;;;;;;;16.42;14.70;;;24.50;50.40;;;;;;5016961;28;20180;-87
2023/06/05 12:32:43;;;;;;;16.00;14.60;;;24.30;50.90;;;;;;5015686;28;20228;-87
2023/06/05 12:35:19;;;;;;;15.45;14.07;;;24.90;49.60;;;;;;5016932;28;20197;-87
2023/06/05 12:37:45;;;;;;;14.82;13.70;;;25.50;48.30;;;;;;5015624;28;20717;-88
2023/06/05 12:40:11;;;;;;;15.57;13.65;;;25.30;48.40;;;;;;5015688;28;20177;-87